Time;durP1;ratioP1;P1;durP2;ratioP2;P2;SDS_P1;SDS_P2;PMS_P1;PMS_P2;Temp;Humidity;BMP_temperature;BMP_pressure;BME280_temperature;BME280_humidity;BME280_pressure;Samples;Min_cycle;Max_cycle;Signal;HPM_P1;HPM_P2
2021/01/22 00:00:22;;;;;;;3.70;1.00;;;10.30;99.90;;;;;;5014359;28;20552;-81
2021/01/22 00:02:49;;;;;;;4.77;0.90;;;10.40;99.90;;;;;;5019682;28;20489;-78
2021/01/22 00:05:16;;;;;;;3.43;1.13;;;10.30;99.90;;;;;;5017612;28;20457;-80
2021/01/22 00:07:42;;;;;;;2.73;1.00;;;10.30;99.90;;;;;;5014354;28;20773;-77
2021/01/22 00:10:10;;;;;;;4.67;1.10;;;10.40;99.90;;;;;;5015001;28;20925;-77
2021/01/22 00:12:37;;;;;;;3.50;0.93;;;10.30;99.90;;;;;;5014130;28;20789;-78
2021/01/22 00:15:06;;;;;;;2.17;0.90;;;10.40;99.90;;;;;;5014668;28;20481;-77
2021/01/22 00:17:32;;;;;;;2.93;1.00;;;10.30;99.90;;;;;;5030955;28;20441;-78
2021/01/22 00:19:58;;;;;;;3.70;1.10;;;10.40;99.90;;;;;;5017334;28;20457;-77
2021/01/22 00:22:25;;;;;;;1.80;0.70;;;10.40;99.90;;;;;;5026883;28;20468;-78
2021/01/22 00:24:51;;;;;;;2.47;0.93;;;10.40;99.90;;;;;;5015188;28;20452;-77
2021/01/22 00:27:17;;;;;;;5.30;1.03;;;10.30;99.90;;;;;;5014579;28;20537;-77
2021/01/22 00:29:44;;;;;;;4.43;0.90;;;10.10;99.90;;;;;;5022103;28;20709;-77
2021/01/22 00:32:11;;;;;;;2.80;0.80;;;9.90;99.90;;;;;;5013864;28;20461;-79
2021/01/22 00:34:37;;;;;;;2.30;0.80;;;9.70;99.90;;;;;;5014700;28;20572;-76
2021/01/22 00:37:03;;;;;;;2.77;1.00;;;9.60;99.90;;;;;;5017294;28;20462;-76
2021/01/22 00:39:31;;;;;;;2.37;0.97;;;9.50;99.90;;;;;;5014498;28;20464;-76
2021/01/22 00:41:57;;;;;;;2.03;0.90;;;9.40;99.90;;;;;;5018814;28;20449;-76
2021/01/22 00:44:24;;;;;;;2.70;1.00;;;9.40;99.90;;;;;;5026946;28;20458;-77
2021/01/22 00:46:50;;;;;;;3.10;1.30;;;9.30;99.90;;;;;;5015698;28;20541;-76
2021/01/22 00:49:17;;;;;;;2.40;1.00;;;9.40;99.90;;;;;;5015023;28;20552;-77
2021/01/22 00:51:44;;;;;;;2.43;0.70;;;9.30;99.90;;;;;;4996826;28;20444;-75
2021/01/22 00:54:10;;;;;;;2.30;0.90;;;9.40;99.90;;;;;;4994967;28;20459;-76
2021/01/22 00:56:36;;;;;;;2.87;0.87;;;9.30;99.90;;;;;;4995038;28;20449;-76
2021/01/22 00:59:03;;;;;;;2.63;1.07;;;9.30;99.90;;;;;;4995608;28;20541;-76
2021/01/22 01:01:29;;;;;;;4.43;1.10;;;9.20;99.90;;;;;;4999565;28;20930;-76
2021/01/22 01:03:55;;;;;;;3.60;0.90;;;9.20;99.90;;;;;;5014462;28;20935;-76
2021/01/22 01:06:23;;;;;;;7.93;1.07;;;9.20;99.90;;;;;;5014295;28;20487;-84
2021/01/22 01:08:49;;;;;;;2.50;0.97;;;9.20;99.90;;;;;;5014771;28;20449;-76
2021/01/22 01:11:15;;;;;;;3.10;1.00;;;9.10;99.90;;;;;;5015087;28;20460;-79
2021/01/22 01:13:42;;;;;;;2.67;1.10;;;9.10;99.90;;;;;;5014283;28;20454;-76
2021/01/22 01:16:08;;;;;;;4.37;1.03;;;9.10;99.90;;;;;;5015142;28;20580;-76
2021/01/22 01:18:34;;;;;;;2.13;0.97;;;9.10;99.90;;;;;;5014999;28;20503;-76
2021/01/22 01:21:01;;;;;;;3.70;1.20;;;9.10;99.90;;;;;;5015236;28;20450;-78
2021/01/22 01:23:28;;;;;;;3.27;1.07;;;9.10;99.90;;;;;;5014419;28;20442;-79
2021/01/22 01:25:55;;;;;;;3.03;1.10;;;9.10;99.90;;;;;;5014211;28;20987;-80
2021/01/22 01:28:21;;;;;;;2.63;1.10;;;9.10;99.90;;;;;;5014246;28;20545;-79
2021/01/22 01:30:47;;;;;;;4.60;1.50;;;9.10;99.90;;;;;;5014026;28;20466;-79
2021/01/22 01:33:14;;;;;;;6.10;1.63;;;9.10;99.90;;;;;;5014593;28;20464;-79
2021/01/22 01:35:40;;;;;;;10.63;2.17;;;9.10;99.90;;;;;;5013874;28;20489;-79
2021/01/22 01:38:07;;;;;;;11.30;1.97;;;9.00;99.90;;;;;;5014538;28;20450;-77
2021/01/22 01:40:34;;;;;;;4.87;1.87;;;9.10;99.90;;;;;;5013527;28;20500;-77
2021/01/22 01:43:00;;;;;;;6.90;1.43;;;9.10;99.90;;;;;;5014513;28;20541;-77
2021/01/22 01:45:28;;;;;;;6.83;1.10;;;9.10;99.90;;;;;;5014354;28;20549;-83
2021/01/22 01:47:54;;;;;;;3.73;1.40;;;9.10;99.90;;;;;;5014251;28;20786;-77
2021/01/22 01:50:21;;;;;;;2.97;1.10;;;9.10;99.90;;;;;;5014331;28;20481;-77
2021/01/22 01:52:47;;;;;;;3.40;1.27;;;9.10;99.90;;;;;;5013387;28;21313;-76
2021/01/22 01:55:15;;;;;;;5.60;1.67;;;9.10;99.90;;;;;;5014401;28;20491;-75
2021/01/22 01:57:42;;;;;;;4.07;1.30;;;9.10;99.90;;;;;;4994892;28;20826;-76
2021/01/22 02:00:09;;;;;;;2.40;1.10;;;9.20;99.90;;;;;;5014106;28;20466;-74
2021/01/22 02:02:36;;;;;;;5.30;1.53;;;9.20;99.90;;;;;;5013930;28;20482;-76
2021/01/22 02:05:03;;;;;;;6.83;1.43;;;9.20;99.90;;;;;;5014714;28;20458;-75
2021/01/22 02:07:29;;;;;;;6.27;1.67;;;9.20;99.90;;;;;;5013722;28;20461;-78
2021/01/22 02:09:55;;;;;;;3.83;1.77;;;9.30;99.90;;;;;;5014200;28;20450;-75
2021/01/22 02:12:22;;;;;;;4.23;1.10;;;9.30;99.90;;;;;;5013997;28;20449;-79
2021/01/22 02:14:50;;;;;;;5.97;1.67;;;9.20;99.90;;;;;;5011944;28;20543;-80
2021/01/22 02:17:16;;;;;;;2.57;1.17;;;9.10;99.90;;;;;;5013182;28;20977;-80
2021/01/22 02:20:02;;;;;;;4.53;0.93;;;8.70;99.90;;;;;;5012154;28;20504;-80
2021/01/22 02:22:29;;;;;;;1.73;0.90;;;8.40;99.90;;;;;;5012323;28;20441;-84
2021/01/22 02:24:56;;;;;;;2.83;0.97;;;8.00;99.90;;;;;;5013049;28;20472;-79
2021/01/22 02:27:24;;;;;;;2.90;0.90;;;7.80;99.90;;;;;;5012947;28;20452;-79
2021/01/22 02:29:51;;;;;;;2.57;1.87;;;7.70;99.90;;;;;;5012580;28;20458;-78
2021/01/22 02:32:18;;;;;;;3.80;2.17;;;7.50;99.90;;;;;;5013582;28;20450;-79
2021/01/22 02:34:46;;;;;;;3.00;2.50;;;7.20;99.90;;;;;;5012578;28;20853;-79
2021/01/22 02:37:16;;;;;;;4.70;2.30;;;7.00;99.90;;;;;;5013316;28;20456;-78
2021/01/22 02:39:45;;;;;;;5.03;2.77;;;6.80;99.90;;;;;;5012371;28;20464;-79
2021/01/22 02:42:12;;;;;;;3.37;2.70;;;6.50;99.90;;;;;;5013195;28;20464;-79
2021/01/22 02:44:39;;;;;;;4.27;2.00;;;6.40;99.90;;;;;;5015852;28;20461;-79
2021/01/22 02:47:08;;;;;;;2.30;1.80;;;6.40;99.90;;;;;;5017405;28;20789;-79
2021/01/22 02:49:34;;;;;;;2.80;1.90;;;6.20;99.90;;;;;;5015384;28;20481;-78
2021/01/22 02:52:00;;;;;;;2.10;1.50;;;6.10;99.90;;;;;;5017059;28;20445;-78
2021/01/22 02:54:27;;;;;;;3.10;1.50;;;6.00;99.90;;;;;;5016877;28;20535;-84
2021/01/22 02:57:11;;;;;;;1.70;0.80;;;6.00;99.90;;;;;;5015071;28;20465;-78
2021/01/22 02:59:50;;;;;;;1.90;0.80;;;5.80;99.90;;;;;;5016475;28;20499;-77
2021/01/22 03:02:22;;;;;;;2.33;0.70;;;5.60;99.90;;;;;;5017673;28;20896;-77
2021/01/22 03:04:48;;;;;;;2.00;0.83;;;5.50;99.90;;;;;;5017026;28;20445;-76
2021/01/22 03:07:22;;;;;;;1.80;0.73;;;5.30;99.90;;;;;;5016936;28;20943;-77
2021/01/22 03:09:51;;;;;;;1.90;0.80;;;5.20;99.90;;;;;;5017351;28;20441;-77
2021/01/22 03:12:18;;;;;;;2.63;0.83;;;5.30;99.90;;;;;;5017248;28;20452;-76
2021/01/22 03:14:47;;;;;;;1.60;0.70;;;5.30;99.90;;;;;;5016739;28;20496;-76
2021/01/22 03:17:17;;;;;;;1.67;0.87;;;5.30;99.90;;;;;;5017031;28;20852;-76
2021/01/22 03:19:44;;;;;;;2.30;1.10;;;5.30;99.90;;;;;;5016566;28;20453;-76
2021/01/22 03:22:11;;;;;;;2.00;1.10;;;5.30;99.90;;;;;;5017201;28;20444;-76
2021/01/22 03:24:37;;;;;;;3.60;2.70;;;5.20;99.90;;;;;;5015982;28;20458;-75
2021/01/22 03:27:04;;;;;;;5.67;4.00;;;5.30;99.90;;;;;;5016732;28;20460;-75
2021/01/22 03:29:30;;;;;;;11.50;5.90;;;5.40;99.90;;;;;;5016260;28;20458;-83
2021/01/22 03:31:58;;;;;;;8.00;4.90;;;5.40;99.90;;;;;;5016045;28;20462;-75
2021/01/22 03:34:26;;;;;;;8.00;4.07;;;5.40;99.90;;;;;;5016618;28;20475;-75
2021/01/22 03:36:54;;;;;;;5.60;2.97;;;5.20;99.90;;;;;;5016272;28;20450;-75
2021/01/22 03:39:21;;;;;;;3.00;2.33;;;5.10;99.90;;;;;;5016962;28;20528;-75
2021/01/22 03:41:48;;;;;;;5.77;3.07;;;5.10;99.90;;;;;;5016110;28;20456;-75
2021/01/22 03:44:16;;;;;;;4.90;3.67;;;4.90;99.90;;;;;;5016640;28;20465;-75
2021/01/22 03:46:42;;;;;;;5.03;4.23;;;5.00;99.90;;;;;;5016624;28;20523;-76
2021/01/22 03:49:11;;;;;;;6.10;4.80;;;5.00;99.90;;;;;;5018856;28;20535;-75
2021/01/22 03:51:37;;;;;;;7.10;5.27;;;5.00;99.90;;;;;;5015805;28;20540;-75
2021/01/22 03:54:04;;;;;;;8.87;6.40;;;5.00;99.90;;;;;;5015831;28;20786;-75
2021/01/22 03:56:31;;;;;;;7.57;6.67;;;5.00;99.90;;;;;;5015117;28;20495;-84
2021/01/22 03:58:57;;;;;;;8.07;6.70;;;5.10;99.90;;;;;;5015825;28;20457;-75
2021/01/22 04:01:23;;;;;;;9.67;7.03;;;5.10;99.90;;;;;;5015960;28;20460;-75
2021/01/22 04:03:50;;;;;;;6.70;6.00;;;5.10;99.90;;;;;;5015279;28;20450;-75
2021/01/22 04:06:18;;;;;;;9.40;7.40;;;5.10;99.90;;;;;;5015281;28;20559;-75
2021/01/22 04:08:44;;;;;;;7.53;6.50;;;5.10;99.90;;;;;;5014943;28;20446;-74
2021/01/22 04:11:11;;;;;;;7.00;5.80;;;5.10;99.90;;;;;;5015743;28;20498;-76
2021/01/22 04:13:37;;;;;;;8.40;5.80;;;5.10;99.90;;;;;;5013852;28;20479;-75
2021/01/22 04:16:04;;;;;;;7.20;6.30;;;5.10;99.90;;;;;;5015562;28;20812;-76
2021/01/22 04:18:30;;;;;;;8.20;6.80;;;5.10;99.90;;;;;;5015152;28;20450;-75
2021/01/22 04:20:57;;;;;;;10.43;6.93;;;5.00;99.90;;;;;;5014377;28;20456;-75
2021/01/22 04:23:24;;;;;;;9.40;6.17;;;5.10;99.90;;;;;;5015605;28;20459;-75
2021/01/22 04:25:50;;;;;;;7.27;5.57;;;5.10;99.90;;;;;;5014470;28;20565;-75
2021/01/22 04:28:16;;;;;;;7.37;5.07;;;5.10;99.90;;;;;;5014407;28;20463;-75
2021/01/22 04:30:43;;;;;;;14.10;6.47;;;5.10;99.90;;;;;;5013820;28;20452;-76
2021/01/22 04:33:09;;;;;;;7.53;5.23;;;5.10;99.90;;;;;;5015161;28;20452;-75
2021/01/22 04:35:35;;;;;;;6.83;5.40;;;5.10;99.90;;;;;;5014163;28;20535;-85
2021/01/22 04:38:02;;;;;;;7.63;5.33;;;5.10;99.90;;;;;;5014615;28;20452;-76
2021/01/22 04:40:30;;;;;;;7.33;5.80;;;5.00;99.90;;;;;;5014375;28;20526;-75
2021/01/22 04:42:56;;;;;;;7.30;5.33;;;5.00;99.90;;;;;;5014091;28;20457;-75
2021/01/22 04:45:23;;;;;;;6.77;5.00;;;5.00;99.90;;;;;;5014834;28;20450;-75
2021/01/22 04:47:49;;;;;;;7.30;4.90;;;5.00;99.90;;;;;;5012804;28;20457;-76
2021/01/22 04:50:18;;;;;;;8.63;5.20;;;5.00;99.90;;;;;;5014072;28;20473;-76
2021/01/22 04:52:46;;;;;;;9.37;6.40;;;5.00;99.90;;;;;;5007907;28;20464;-76
2021/01/22 04:55:13;;;;;;;7.13;6.13;;;4.90;99.90;;;;;;5014378;28;20506;-76
2021/01/22 04:57:43;;;;;;;9.20;6.40;;;4.90;99.90;;;;;;4997915;28;20470;-77
2021/01/22 05:00:11;;;;;;;9.10;6.60;;;5.00;99.90;;;;;;5006749;28;20466;-76
2021/01/22 05:02:38;;;;;;;9.13;7.10;;;5.00;99.90;;;;;;5013118;28;20455;-77
2021/01/22 05:05:05;;;;;;;9.60;7.70;;;5.10;99.90;;;;;;5021716;28;20453;-76
2021/01/22 05:07:32;;;;;;;11.67;8.90;;;5.10;99.90;;;;;;5013675;28;20840;-76
2021/01/22 05:09:58;;;;;;;9.50;6.87;;;4.90;99.90;;;;;;5013325;28;20457;-76
2021/01/22 05:12:34;;;;;;;8.80;7.30;;;5.00;99.90;;;;;;5013501;28;20453;-77
2021/01/22 05:15:13;;;;;;;10.90;7.57;;;5.00;99.90;;;;;;5012579;28;20473;-76
2021/01/22 05:17:53;;;;;;;9.63;7.67;;;4.90;99.90;;;;;;5012887;28;20453;-78
2021/01/22 05:20:30;;;;;;;8.43;7.07;;;4.80;99.90;;;;;;5013954;28;20456;-76
2021/01/22 05:22:56;;;;;;;9.67;7.67;;;4.80;99.90;;;;;;5013065;28;20438;-77
2021/01/22 05:25:23;;;;;;;7.57;6.77;;;4.80;99.90;;;;;;5013772;28;20471;-76
2021/01/22 05:27:50;;;;;;;9.20;6.70;;;4.80;99.90;;;;;;5012808;28;20456;-77
2021/01/22 05:30:18;;;;;;;8.93;6.63;;;4.70;99.90;;;;;;5013787;28;20785;-77
2021/01/22 05:32:45;;;;;;;10.37;7.77;;;4.70;99.90;;;;;;5012978;28;20460;-77
2021/01/22 05:35:11;;;;;;;10.70;7.20;;;4.60;99.90;;;;;;5013493;28;20493;-77
2021/01/22 05:37:58;;;;;;;8.30;7.50;;;4.70;99.90;;;;;;5012539;28;20895;-77
2021/01/22 05:40:25;;;;;;;9.00;7.57;;;4.70;99.90;;;;;;4996351;28;20464;-77
2021/01/22 05:42:53;;;;;;;9.27;7.60;;;4.80;99.90;;;;;;5012794;28;20554;-78
2021/01/22 05:45:38;;;;;;;8.67;7.20;;;4.70;99.90;;;;;;5013881;28;20479;-77
2021/01/22 05:48:16;;;;;;;8.60;7.80;;;4.80;99.90;;;;;;5013496;28;20442;-77
2021/01/22 05:50:47;;;;;;;7.67;6.83;;;4.80;99.90;;;;;;5012110;28;20973;-78
2021/01/22 05:53:14;;;;;;;8.33;7.17;;;4.80;99.90;;;;;;5013630;28;20454;-77
2021/01/22 05:55:40;;;;;;;9.20;7.00;;;4.80;99.90;;;;;;5012561;28;20479;-77
2021/01/22 05:58:07;;;;;;;10.77;7.40;;;4.80;99.90;;;;;;5012270;28;20461;-77
2021/01/22 06:00:33;;;;;;;9.10;6.33;;;4.90;99.90;;;;;;5013401;28;20466;-78
2021/01/22 06:03:01;;;;;;;7.80;5.90;;;4.90;99.90;;;;;;5012982;28;20449;-78
2021/01/22 06:05:27;;;;;;;11.43;7.47;;;4.90;99.90;;;;;;5013246;28;20459;-78
2021/01/22 06:08:08;;;;;;;9.57;7.10;;;4.90;99.90;;;;;;5012766;28;20563;-77
2021/01/22 06:10:39;;;;;;;8.60;7.07;;;4.90;99.90;;;;;;5013038;28;20456;-83
2021/01/22 06:13:09;;;;;;;8.93;7.40;;;4.90;99.90;;;;;;5012786;28;20438;-77
2021/01/22 06:15:36;;;;;;;11.97;7.60;;;5.00;99.90;;;;;;5012722;28;20477;-86
2021/01/22 06:18:04;;;;;;;12.33;7.40;;;5.00;99.90;;;;;;5014317;28;20480;-77
2021/01/22 06:20:36;;;;;;;9.23;6.90;;;5.10;99.90;;;;;;5015443;28;20841;-78
2021/01/22 06:23:11;;;;;;;7.83;7.00;;;5.10;99.90;;;;;;5017271;28;20448;-77
2021/01/22 06:25:38;;;;;;;10.20;6.53;;;5.10;99.90;;;;;;5016374;28;20457;-83
2021/01/22 06:28:06;;;;;;;10.50;7.70;;;5.10;99.90;;;;;;5004104;28;20465;-79
2021/01/22 06:30:34;;;;;;;8.53;6.67;;;5.10;99.90;;;;;;5008320;28;20464;-80
2021/01/22 06:33:03;;;;;;;11.70;7.67;;;5.10;99.90;;;;;;5016438;28;20457;-79
2021/01/22 06:35:32;;;;;;;7.73;5.80;;;5.20;99.90;;;;;;5016796;28;20495;-76
2021/01/22 06:37:59;;;;;;;9.80;7.47;;;5.20;99.90;;;;;;5016235;28;20463;-77
2021/01/22 06:40:26;;;;;;;9.60;6.40;;;5.20;99.90;;;;;;5017115;28;20454;-77
2021/01/22 06:42:53;;;;;;;9.40;7.30;;;5.20;99.90;;;;;;5016316;28;20456;-77
2021/01/22 06:45:21;;;;;;;9.63;7.50;;;5.30;99.90;;;;;;5016994;28;20555;-77
2021/01/22 06:48:01;;;;;;;7.60;6.30;;;5.40;99.90;;;;;;5016190;28;20453;-77
2021/01/22 06:50:27;;;;;;;11.90;8.00;;;5.40;99.90;;;;;;5016808;28;20474;-78
2021/01/22 06:53:09;;;;;;;10.07;6.40;;;5.30;99.90;;;;;;5016275;28;20502;-78
2021/01/22 06:56:08;;;;;;;8.13;7.17;;;5.30;99.90;;;;;;5016613;28;20861;-77
2021/01/22 06:58:34;;;;;;;10.43;7.93;;;5.40;99.90;;;;;;5005997;28;20454;-78
2021/01/22 07:01:02;;;;;;;9.03;7.17;;;5.20;99.90;;;;;;5000134;28;20764;-76
2021/01/22 07:03:48;;;;;;;10.50;8.07;;;5.30;99.90;;;;;;5016776;28;20448;-76
2021/01/22 07:06:48;;;;;;;10.37;6.73;;;5.20;99.90;;;;;;5016110;28;20464;-78
2021/01/22 07:09:16;;;;;;;11.83;7.80;;;5.30;99.90;;;;;;5016128;28;20499;-76
2021/01/22 07:11:53;;;;;;;9.23;6.93;;;5.20;99.90;;;;;;5015384;28;20480;-77
2021/01/22 07:14:41;;;;;;;10.83;6.90;;;5.30;99.90;;;;;;5015630;28;20452;-76
2021/01/22 07:17:18;;;;;;;8.57;7.00;;;5.20;99.90;;;;;;5000808;28;20461;-76
2021/01/22 07:19:53;;;;;;;8.87;6.37;;;5.30;99.90;;;;;;4996303;28;20446;-78
2021/01/22 07:22:20;;;;;;;11.50;7.60;;;5.30;99.90;;;;;;5002489;28;20503;-78
2021/01/22 07:24:50;;;;;;;10.50;7.07;;;5.20;99.90;;;;;;5019915;28;20498;-78
2021/01/22 07:27:17;;;;;;;10.70;6.40;;;5.20;99.90;;;;;;5016128;28;20456;-78
2021/01/22 07:30:08;;;;;;;14.77;9.27;;;5.30;99.90;;;;;;5015417;28;20797;-79
2021/01/22 07:32:34;;;;;;;11.40;6.70;;;5.30;99.90;;;;;;5015627;28;20914;-78
2021/01/22 07:35:01;;;;;;;11.20;7.10;;;5.30;99.90;;;;;;5015335;28;21013;-78
2021/01/22 07:37:36;;;;;;;9.93;6.27;;;5.40;99.90;;;;;;5015567;28;20454;-77
2021/01/22 07:40:07;;;;;;;9.33;6.20;;;5.40;99.90;;;;;;5014910;28;20536;-77
2021/01/22 07:42:33;;;;;;;9.80;6.60;;;5.40;99.90;;;;;;5015473;28;20444;-78
2021/01/22 07:45:09;;;;;;;9.97;6.90;;;5.40;99.90;;;;;;5015241;28;20447;-77
2021/01/22 07:47:38;;;;;;;10.40;7.00;;;5.50;99.90;;;;;;5016326;28;20451;-77
2021/01/22 07:50:07;;;;;;;11.80;6.63;;;5.50;99.90;;;;;;5015263;28;20517;-77
2021/01/22 07:52:38;;;;;;;8.87;6.10;;;5.50;99.90;;;;;;5015616;28;20452;-77
2021/01/22 07:55:15;;;;;;;9.38;7.50;;;5.40;99.90;;;;;;5014229;28;20461;-77
2021/01/22 07:57:41;;;;;;;10.33;6.07;;;5.50;99.90;;;;;;5014934;28;20260;-83
2021/01/22 08:00:09;;;;;;;8.63;6.60;;;5.60;99.90;;;;;;5015554;28;20860;-77
2021/01/22 08:02:36;;;;;;;11.27;6.53;;;5.60;99.90;;;;;;5015935;28;20450;-77
2021/01/22 08:05:03;;;;;;;11.60;6.87;;;5.70;99.90;;;;;;5014977;28;21025;-77
2021/01/22 08:07:34;;;;;;;10.57;6.77;;;5.70;99.90;;;;;;5008087;28;20454;-77
2021/01/22 08:10:01;;;;;;;25.50;12.50;;;5.70;99.90;;;;;;5013451;28;20480;-78
2021/01/22 08:12:28;;;;;;;13.83;8.47;;;5.70;99.90;;;;;;5016715;28;20453;-78
2021/01/22 08:14:57;;;;;;;9.70;6.20;;;5.80;99.90;;;;;;5026610;28;20548;-77
2021/01/22 08:17:23;;;;;;;10.30;6.20;;;5.80;99.90;;;;;;5035072;28;20491;-77
2021/01/22 08:19:50;;;;;;;8.13;5.80;;;5.90;99.90;;;;;;5034381;28;20456;-77
2021/01/22 08:22:16;;;;;;;8.90;6.20;;;5.80;99.90;;;;;;5031306;28;20998;-78
2021/01/22 08:24:47;;;;;;;9.90;7.23;;;5.80;99.90;;;;;;5031873;28;20445;-85
2021/01/22 08:27:14;;;;;;;10.20;6.87;;;5.80;99.90;;;;;;5022792;28;20457;-77
2021/01/22 08:29:43;;;;;;;14.43;7.40;;;5.80;99.90;;;;;;5022068;28;20458;-84
2021/01/22 08:32:12;;;;;;;12.73;6.70;;;5.80;99.90;;;;;;5027486;28;20837;-78
2021/01/22 08:34:39;;;;;;;8.97;4.97;;;5.80;99.90;;;;;;5025383;28;20500;-78
2021/01/22 08:37:08;;;;;;;12.60;6.17;;;5.90;99.90;;;;;;5026719;28;20602;-78
2021/01/22 08:39:51;;;;;;;10.77;6.53;;;5.90;99.90;;;;;;5023117;28;20457;-79
2021/01/22 08:42:18;;;;;;;8.50;5.90;;;6.10;99.90;;;;;;5010515;28;20469;-77
2021/01/22 08:44:56;;;;;;;10.33;6.50;;;6.10;99.90;;;;;;5014677;28;20452;-83
2021/01/22 08:47:23;;;;;;;10.10;5.80;;;6.20;99.90;;;;;;5017817;28;20438;-78
2021/01/22 08:49:54;;;;;;;7.70;6.00;;;6.20;99.90;;;;;;5006051;28;20489;-77
2021/01/22 08:52:20;;;;;;;9.60;5.40;;;6.20;99.90;;;;;;4996132;28;20462;-78
2021/01/22 08:54:49;;;;;;;9.60;6.60;;;6.40;99.90;;;;;;4994773;28;20530;-79
2021/01/22 08:57:15;;;;;;;9.67;5.87;;;6.40;99.90;;;;;;4995567;28;20455;-78
2021/01/22 08:59:50;;;;;;;9.20;5.77;;;6.50;99.90;;;;;;5007767;28;20450;-85
2021/01/22 09:02:35;;;;;;;11.10;6.60;;;6.40;99.90;;;;;;5012055;28;20449;-78
2021/01/22 09:05:07;;;;;;;8.10;5.80;;;6.40;99.90;;;;;;5019441;28;20472;-78
2021/01/22 09:07:33;;;;;;;9.30;5.70;;;6.50;99.90;;;;;;5011600;28;20476;-79
2021/01/22 09:10:00;;;;;;;11.40;6.13;;;6.50;99.90;;;;;;5004751;28;20462;-79
2021/01/22 09:12:28;;;;;;;9.23;6.23;;;6.60;99.90;;;;;;5012327;28;20461;-76
2021/01/22 09:15:00;;;;;;;11.63;6.27;;;6.60;99.90;;;;;;5011901;28;20948;-76
2021/01/22 09:17:35;;;;;;;10.10;7.10;;;6.70;99.90;;;;;;5014247;28;20515;-79
2021/01/22 09:20:06;;;;;;;8.93;5.97;;;6.70;99.90;;;;;;5007914;28;20825;-76
2021/01/22 09:22:33;;;;;;;10.43;6.13;;;6.80;99.90;;;;;;5009690;28;20454;-77
2021/01/22 09:25:00;;;;;;;9.30;5.80;;;6.80;99.90;;;;;;5014727;28;20454;-77
2021/01/22 09:27:27;;;;;;;10.93;6.33;;;6.90;99.90;;;;;;5017902;28;20522;-77
2021/01/22 09:29:54;;;;;;;9.40;5.80;;;6.80;99.90;;;;;;5021065;28;20468;-79
2021/01/22 09:32:21;;;;;;;9.80;6.13;;;6.90;99.90;;;;;;5024362;28;20459;-77
2021/01/22 09:34:48;;;;;;;11.40;7.07;;;6.70;99.90;;;;;;5021094;28;20468;-79
2021/01/22 09:37:14;;;;;;;8.47;5.67;;;6.60;99.90;;;;;;5017463;28;20454;-76
2021/01/22 09:39:41;;;;;;;9.33;6.27;;;6.80;99.90;;;;;;5012791;28;20930;-77
2021/01/22 09:42:08;;;;;;;11.83;7.00;;;7.00;99.90;;;;;;5013036;28;20824;-76
2021/01/22 09:44:34;;;;;;;13.50;5.20;;;7.10;99.90;;;;;;5013435;28;20497;-76
2021/01/22 09:47:01;;;;;;;12.57;7.87;;;7.40;99.90;;;;;;5012852;28;20490;-77
2021/01/22 09:49:27;;;;;;;9.60;5.40;;;7.40;99.90;;;;;;5012914;28;20460;-77
2021/01/22 09:51:54;;;;;;;8.50;5.87;;;7.60;99.90;;;;;;5014475;28;20491;-79
2021/01/22 09:54:21;;;;;;;7.03;5.60;;;7.60;99.90;;;;;;5015034;28;20454;-76
2021/01/22 09:56:47;;;;;;;10.43;5.73;;;7.60;99.90;;;;;;5013088;28;20492;-83
2021/01/22 09:59:14;;;;;;;8.63;5.57;;;7.60;99.90;;;;;;5012461;28;20549;-76
2021/01/22 10:01:40;;;;;;;7.80;5.27;;;7.70;99.90;;;;;;5012946;28;20449;-76
2021/01/22 10:04:06;;;;;;;10.70;6.13;;;7.70;99.90;;;;;;5011880;28;20474;-76
2021/01/22 10:06:33;;;;;;;7.60;4.80;;;7.70;99.90;;;;;;5013517;28;20515;-76
2021/01/22 10:09:00;;;;;;;8.40;4.70;;;7.70;99.90;;;;;;5012399;28;20454;-76
2021/01/22 10:11:26;;;;;;;11.33;5.80;;;8.00;99.90;;;;;;5013495;28;20452;-76
2021/01/22 10:13:56;;;;;;;10.70;4.97;;;8.10;99.90;;;;;;5011290;28;20500;-76
2021/01/22 10:16:24;;;;;;;8.27;5.60;;;7.80;99.90;;;;;;5013288;28;20486;-76
2021/01/22 10:18:52;;;;;;;7.60;4.47;;;7.80;99.90;;;;;;5012576;28;20457;-76
2021/01/22 10:21:20;;;;;;;8.40;5.30;;;8.10;99.90;;;;;;5013108;28;20790;-76
2021/01/22 10:23:47;;;;;;;6.70;5.37;;;8.30;99.90;;;;;;5012878;28;20537;-81
2021/01/22 10:26:16;;;;;;;8.40;5.90;;;8.30;99.90;;;;;;5012972;28;20464;-75
2021/01/22 10:28:42;;;;;;;8.00;5.33;;;8.30;99.90;;;;;;5013350;28;20545;-75
2021/01/22 10:31:09;;;;;;;11.50;5.40;;;8.30;99.90;;;;;;5012531;28;20995;-75
2021/01/22 10:33:35;;;;;;;8.90;5.47;;;8.20;99.90;;;;;;5013484;28;20450;-75
2021/01/22 10:36:02;;;;;;;13.50;5.50;;;8.20;99.90;;;;;;5012151;28;20551;-75
2021/01/22 10:38:28;;;;;;;12.03;5.47;;;8.20;99.90;;;;;;5013122;28;20453;-76
2021/01/22 10:40:55;;;;;;;7.63;4.93;;;8.20;99.90;;;;;;5013259;28;20454;-78
2021/01/22 10:43:23;;;;;;;7.50;4.90;;;8.10;99.90;;;;;;5013061;28;20470;-75
2021/01/22 10:45:50;;;;;;;9.70;5.67;;;8.20;99.90;;;;;;5012065;28;20473;-81
2021/01/22 10:48:17;;;;;;;9.77;5.60;;;8.20;99.90;;;;;;5013076;28;20540;-75
2021/01/22 10:50:43;;;;;;;6.60;4.60;;;8.10;99.90;;;;;;5012765;28;20564;-76
2021/01/22 10:53:10;;;;;;;7.83;5.47;;;8.10;99.90;;;;;;5011886;28;20456;-76
2021/01/22 10:55:36;;;;;;;9.00;5.20;;;8.10;99.90;;;;;;5012992;28;20823;-75
2021/01/22 10:58:02;;;;;;;9.10;4.73;;;8.00;99.90;;;;;;5011610;28;20548;-75
2021/01/22 11:00:30;;;;;;;10.03;5.50;;;7.90;99.90;;;;;;5012904;28;20461;-75
2021/01/22 11:02:56;;;;;;;9.80;5.80;;;7.80;99.90;;;;;;5012303;28;20501;-76
2021/01/22 11:05:23;;;;;;;9.67;4.50;;;7.70;99.90;;;;;;5014127;28;20501;-75
2021/01/22 11:07:49;;;;;;;8.00;4.97;;;8.00;99.90;;;;;;5015865;28;20449;-83
2021/01/22 11:10:16;;;;;;;7.73;4.90;;;8.20;99.90;;;;;;5015903;28;20460;-76
2021/01/22 11:12:42;;;;;;;7.37;4.23;;;8.20;99.90;;;;;;5016211;28;20453;-75
2021/01/22 11:15:09;;;;;;;7.70;4.70;;;8.60;99.90;;;;;;5014793;28;20514;-75
2021/01/22 11:17:36;;;;;;;7.40;4.77;;;8.60;99.90;;;;;;5015265;28;20833;-76
2021/01/22 11:20:04;;;;;;;6.23;4.53;;;8.60;99.90;;;;;;5014371;28;20449;-75
2021/01/22 11:22:30;;;;;;;5.70;3.90;;;8.70;99.90;;;;;;5016004;28;20507;-75
2021/01/22 11:24:57;;;;;;;8.00;4.07;;;8.80;99.90;;;;;;5014881;28;20450;-75
2021/01/22 11:27:23;;;;;;;7.03;4.57;;;9.00;99.90;;;;;;5016047;28;20454;-75
2021/01/22 11:29:50;;;;;;;14.20;4.97;;;9.00;99.90;;;;;;5015532;28;20482;-83
2021/01/22 11:32:17;;;;;;;6.80;4.73;;;9.40;99.90;;;;;;5015540;28;20450;-76
2021/01/22 11:34:44;;;;;;;9.80;4.97;;;9.70;99.90;;;;;;5019911;28;20445;-76
2021/01/22 11:37:11;;;;;;;7.83;4.40;;;9.70;99.90;;;;;;5025023;28;20488;-76
2021/01/22 11:39:38;;;;;;;11.60;5.83;;;9.90;99.90;;;;;;5023853;28;20444;-76
2021/01/22 11:42:04;;;;;;;7.30;4.70;;;9.50;99.90;;;;;;5021728;28;20463;-76
2021/01/22 11:44:31;;;;;;;10.47;6.47;;;9.70;99.90;;;;;;5019619;28;20543;-77
2021/01/22 11:46:57;;;;;;;6.10;4.40;;;9.60;99.90;;;;;;5006002;28;20457;-77
2021/01/22 11:49:24;;;;;;;8.43;5.17;;;9.90;99.90;;;;;;5014672;28;20456;-78
2021/01/22 11:51:52;;;;;;;6.27;4.50;;;10.80;99.90;;;;;;5011400;28;20481;-84
2021/01/22 11:54:18;;;;;;;10.13;4.90;;;11.10;99.90;;;;;;5014610;28;20458;-76
2021/01/22 11:56:46;;;;;;;8.83;4.90;;;10.90;99.90;;;;;;5010867;28;20632;-76
2021/01/22 11:59:12;;;;;;;6.60;4.53;;;10.40;99.90;;;;;;5001523;28;20458;-76
2021/01/22 12:01:39;;;;;;;7.90;4.73;;;9.80;99.90;;;;;;5005603;28;20466;-76
2021/01/22 12:04:05;;;;;;;10.30;4.33;;;9.80;99.90;;;;;;5023386;28;20513;-76
2021/01/22 12:06:32;;;;;;;5.73;4.30;;;9.70;99.90;;;;;;5010738;28;20942;-78
2021/01/22 12:08:59;;;;;;;7.90;4.47;;;10.50;99.90;;;;;;5011947;28;20927;-76
2021/01/22 12:11:28;;;;;;;7.50;4.80;;;11.10;99.90;;;;;;5024756;28;20862;-78
2021/01/22 12:13:55;;;;;;;5.53;3.67;;;10.80;99.90;;;;;;5025830;28;20790;-76
2021/01/22 12:16:22;;;;;;;8.50;4.80;;;11.50;99.90;;;;;;5018723;28;20481;-77
2021/01/22 12:18:50;;;;;;;7.57;4.60;;;11.30;99.90;;;;;;5017594;28;20457;-82
2021/01/22 12:21:16;;;;;;;6.37;4.20;;;11.70;99.90;;;;;;5022998;28;20974;-76
2021/01/22 12:23:43;;;;;;;7.97;4.30;;;13.20;99.90;;;;;;5035024;28;20519;-76
2021/01/22 12:26:10;;;;;;;7.43;4.07;;;13.60;99.90;;;;;;5034342;28;20457;-76
2021/01/22 12:28:38;;;;;;;4.73;3.60;;;14.20;99.90;;;;;;5018766;28;20537;-76
2021/01/22 12:31:04;;;;;;;5.80;3.40;;;14.10;99.90;;;;;;5034374;28;20457;-76
2021/01/22 12:33:31;;;;;;;6.63;4.60;;;15.40;99.90;;;;;;5024530;28;20921;-76
2021/01/22 12:35:57;;;;;;;6.57;4.60;;;14.90;99.90;;;;;;5034793;28;20480;-76
2021/01/22 12:38:24;;;;;;;6.60;4.33;;;14.70;99.90;;;;;;5034759;28;20461;-76
2021/01/22 12:40:51;;;;;;;6.10;3.80;;;14.70;99.90;;;;;;5033418;28;20514;-79
2021/01/22 12:43:19;;;;;;;6.60;4.47;;;14.70;99.90;;;;;;5019940;28;20541;-76
2021/01/22 12:45:45;;;;;;;8.53;4.57;;;14.40;99.90;;;;;;5010733;28;20976;-77
2021/01/22 12:48:12;;;;;;;8.23;3.90;;;13.70;99.90;;;;;;5025741;28;20543;-76
2021/01/22 12:50:38;;;;;;;9.10;4.50;;;14.00;99.90;;;;;;5020586;28;20458;-76
2021/01/22 12:53:05;;;;;;;10.13;5.33;;;12.90;99.90;;;;;;5030474;28;20465;-76
2021/01/22 12:55:31;;;;;;;35.33;21.60;;;11.60;99.90;;;;;;5027407;28;20991;-76
2021/01/22 12:57:57;;;;;;;7.47;5.40;;;11.20;99.90;;;;;;5033235;28;20452;-76